createdAt,value
2018-11-12T00:03:30.033Z,5.70
2018-11-12T00:13:31.289Z,5.70
2018-11-12T00:23:32.535Z,5.70
2018-11-12T00:33:33.775Z,5.70
2018-11-12T00:43:35.081Z,5.80
2018-11-12T00:53:36.376Z,5.80
2018-11-12T01:03:37.654Z,5.80
2018-11-12T01:13:38.914Z,5.80
2018-11-12T01:23:40.204Z,5.60
2018-11-12T01:33:41.485Z,5.70
2018-11-12T01:43:43.512Z,5.30
2018-11-12T01:53:44.758Z,5.30
2018-11-12T02:03:46.007Z,5.30
2018-11-12T02:13:47.400Z,5.30
2018-11-12T02:23:48.647Z,5.20
2018-11-12T02:33:49.906Z,5.10
2018-11-12T02:43:51.212Z,5.10
2018-11-12T02:53:52.483Z,4.90
2018-11-12T03:03:53.745Z,5.00
2018-11-12T03:13:54.999Z,4.90
2018-11-12T03:23:56.276Z,4.80
2018-11-12T03:33:57.535Z,4.80
2018-11-12T03:43:58.800Z,4.70
2018-11-12T03:54:00.032Z,4.60
2018-11-12T04:04:02.045Z,4.70
2018-11-12T04:14:05.160Z,4.70
2018-11-12T04:24:06.410Z,4.60
2018-11-12T04:34:07.675Z,4.40
2018-11-12T04:44:09.697Z,4.30
2018-11-12T04:54:11.747Z,4.30
2018-11-12T05:04:13.008Z,4.30
2018-11-12T05:14:14.305Z,4.30
2018-11-12T05:24:16.324Z,4.20
2018-11-12T05:34:17.594Z,4.20
2018-11-12T05:44:18.861Z,4.10
2018-11-12T05:54:20.150Z,4.10
2018-11-12T06:04:21.370Z,4.20
2018-11-12T06:14:22.635Z,4.10
2018-11-12T06:24:23.902Z,4.30
2018-11-12T06:34:25.160Z,4.20
2018-11-12T06:44:26.436Z,4.40
2018-11-12T06:54:27.776Z,4.60
2018-11-12T07:04:29.044Z,5.10
2018-11-12T07:14:30.319Z,5.60
2018-11-12T07:24:31.602Z,7.10
2018-11-12T07:34:32.947Z,10.70
2018-11-12T07:44:34.995Z,14.20
2018-11-12T07:54:36.264Z,14.10
2018-11-12T08:04:38.295Z,17.60
2018-11-12T08:14:39.690Z,17.60
2018-11-12T08:24:40.919Z,19.20
2018-11-12T08:34:42.206Z,18.90
2018-11-12T08:44:43.466Z,18.60
2018-11-12T08:54:44.778Z,23.90
2018-11-12T09:04:46.032Z,24.10
2018-11-12T09:14:48.091Z,29.40
2018-11-12T09:24:49.381Z,29.20
2018-11-12T09:34:50.652Z,25.60
2018-11-12T09:44:52.678Z,20.20
2018-11-12T09:54:54.012Z,20.00
2018-11-12T10:04:57.749Z,15.60
2018-11-12T10:14:59.412Z,15.50
2018-11-12T10:24:58.519Z,14.70
2018-11-12T10:34:59.780Z,16.50
2018-11-12T10:45:01.047Z,17.70
2018-11-12T10:55:05.630Z,17.90
2018-11-12T11:05:03.634Z,18.40
2018-11-12T11:15:04.918Z,17.10
2018-11-12T11:25:06.182Z,16.30
2018-11-12T11:35:07.449Z,16.10
2018-11-12T11:45:08.730Z,15.90
2018-11-12T11:55:10.004Z,16.10
2018-11-12T12:05:11.265Z,16.40
2018-11-12T12:15:12.531Z,16.10
2018-11-12T12:25:13.985Z,16.40
2018-11-12T12:35:15.111Z,16.30
2018-11-12T12:45:17.166Z,16.30
2018-11-12T12:55:18.462Z,16.30
2018-11-12T13:05:19.705Z,16.40
2018-11-12T13:15:21.034Z,16.30
2018-11-12T13:25:22.275Z,16.20
2018-11-12T13:35:23.619Z,16.00
2018-11-12T13:45:24.889Z,15.90
2018-11-12T13:55:26.152Z,15.70
2018-11-12T14:05:27.447Z,16.00
2018-11-12T14:15:28.702Z,15.90
2018-11-12T14:25:30.059Z,15.90
2018-11-12T14:35:31.345Z,15.50
2018-11-12T14:45:32.603Z,15.30
2018-11-12T14:55:33.897Z,15.10
2018-11-12T15:05:35.162Z,14.90
2018-11-12T15:15:37.166Z,14.00
2018-11-12T15:25:38.419Z,14.00
2018-11-12T15:35:39.735Z,13.20
2018-11-12T15:45:41.262Z,12.60
2018-11-12T15:55:43.298Z,11.70
2018-11-12T16:05:44.606Z,11.70
2018-11-12T16:15:45.987Z,11.40
2018-11-12T16:25:47.452Z,11.10
2018-11-12T16:35:48.922Z,10.80
2018-11-12T16:45:50.246Z,10.60
2018-11-12T16:55:51.479Z,10.30
2018-11-12T17:05:52.731Z,10.10
2018-11-12T17:15:53.970Z,9.90
2018-11-12T17:25:56.006Z,9.40
2018-11-12T17:35:57.287Z,9.40
2018-11-12T17:45:58.582Z,9.30
2018-11-12T17:55:59.938Z,9.10
2018-11-12T18:06:01.286Z,8.90
2018-11-12T18:16:02.599Z,8.80
2018-11-12T18:26:03.898Z,8.80
2018-11-12T18:36:05.147Z,8.50
2018-11-12T18:46:06.404Z,8.50
2018-11-12T18:56:07.671Z,8.30
2018-11-12T19:06:08.996Z,8.20
2018-11-12T19:16:13.019Z,8.10
2018-11-12T19:26:14.341Z,8.00
2018-11-12T19:36:15.609Z,8.00
2018-11-12T19:46:17.318Z,7.90
2018-11-12T19:56:20.807Z,7.70
2018-11-12T20:06:22.075Z,7.60
2018-11-12T20:16:23.338Z,7.60
2018-11-12T20:26:25.340Z,7.50
2018-11-12T20:36:27.392Z,7.40
2018-11-12T20:46:28.646Z,7.40
2018-11-12T20:56:30.645Z,7.30
2018-11-12T21:06:31.887Z,7.30
2018-11-12T21:16:33.218Z,7.20
2018-11-12T21:26:34.475Z,7.10
2018-11-12T21:36:35.758Z,7.10
2018-11-12T21:46:37.055Z,7.10
2018-11-12T21:56:38.318Z,7.00
2018-11-12T22:06:39.577Z,7.00
2018-11-12T22:16:40.854Z,6.90
2018-11-12T22:26:42.148Z,6.80
2018-11-12T22:36:43.467Z,6.70
2018-11-12T22:46:44.695Z,6.80
2018-11-12T22:56:45.958Z,6.80
2018-11-12T23:06:47.232Z,6.80
2018-11-12T23:16:48.499Z,6.70
2018-11-12T23:26:50.529Z,6.50
2018-11-12T23:36:52.553Z,6.20
2018-11-12T23:46:53.911Z,6.20
2018-11-12T23:56:55.859Z,6.10
